sensor_id;sensor_type;location;lat;lon;timestamp;pressure;altitude;pressure_sealevel;temperature;humidity
24280;BME280;12395;42.808;23.408;2023-08-06T00:01:26;93823.97;;;18.15;100.00
24280;BME280;12395;42.808;23.408;2023-08-06T00:03:51;93817.16;;;18.28;100.00
24280;BME280;12395;42.808;23.408;2023-08-06T00:06:17;93814.47;;;18.28;100.00
24280;BME280;12395;42.808;23.408;2023-08-06T00:08:42;93803.47;;;18.29;100.00
24280;BME280;12395;42.808;23.408;2023-08-06T00:11:07;93801.81;;;18.33;100.00
24280;BME280;12395;42.808;23.408;2023-08-06T00:13:33;93805.13;;;18.25;100.00
24280;BME280;12395;42.808;23.408;2023-08-06T00:16:53;93799.94;;;18.34;100.00
24280;BME280;12395;42.808;23.408;2023-08-06T00:18:57;93764.25;;;18.38;100.00
24280;BME280;12395;42.808;23.408;2023-08-06T00:21:22;93755.19;;;18.29;100.00
24280;BME280;12395;42.808;23.408;2023-08-06T00:23:47;93780.41;;;18.28;100.00
24280;BME280;12395;42.808;23.408;2023-08-06T00:26:13;93803.44;;;18.34;100.00
24280;BME280;12395;42.808;23.408;2023-08-06T00:28:38;93787.06;;;18.36;100.00
24280;BME280;12395;42.808;23.408;2023-08-06T00:31:03;93789.22;;;18.34;100.00
24280;BME280;12395;42.808;23.408;2023-08-06T00:33:29;93789.44;;;18.37;100.00
24280;BME280;12395;42.808;23.408;2023-08-06T00:35:54;93761.91;;;18.27;100.00
24280;BME280;12395;42.808;23.408;2023-08-06T00:38:20;93762.25;;;18.20;100.00
24280;BME280;12395;42.808;23.408;2023-08-06T00:40:45;93755.16;;;18.06;100.00
24280;BME280;12395;42.808;23.408;2023-08-06T00:43:10;93751.72;;;18.00;100.00
24280;BME280;12395;42.808;23.408;2023-08-06T00:45:37;93761.63;;;18.00;100.00
24280;BME280;12395;42.808;23.408;2023-08-06T00:48:04;93746.22;;;17.82;100.00
24280;BME280;12395;42.808;23.408;2023-08-06T00:50:31;93732.47;;;17.93;100.00
24280;BME280;12395;42.808;23.408;2023-08-06T00:52:57;93735.63;;;18.00;100.00
24280;BME280;12395;42.808;23.408;2023-08-06T00:55:23;93727.50;;;18.10;100.00
24280;BME280;12395;42.808;23.408;2023-08-06T00:57:48;93722.97;;;18.06;100.00
24280;BME280;12395;42.808;23.408;2023-08-06T01:00:15;93750.78;;;18.15;100.00
24280;BME280;12395;42.808;23.408;2023-08-06T01:02:40;93745.94;;;18.17;100.00
24280;BME280;12395;42.808;23.408;2023-08-06T01:05:06;93742.41;;;18.21;100.00
24280;BME280;12395;42.808;23.408;2023-08-06T01:13:05;93726.69;;;18.38;100.00
24280;BME280;12395;42.808;23.408;2023-08-06T01:15:58;93713.91;;;18.30;100.00
24280;BME280;12395;42.808;23.408;2023-08-06T01:18:25;93695.59;;;18.37;100.00
24280;BME280;12395;42.808;23.408;2023-08-06T01:20:51;93687.88;;;18.31;100.00
24280;BME280;12395;42.808;23.408;2023-08-06T01:23:16;93708.69;;;18.44;100.00
24280;BME280;12395;42.808;23.408;2023-08-06T01:26:15;93713.00;;;18.40;100.00
24280;BME280;12395;42.808;23.408;2023-08-06T01:31:26;93727.75;;;18.37;100.00
24280;BME280;12395;42.808;23.408;2023-08-06T01:33:53;93720.81;;;18.36;100.00
24280;BME280;12395;42.808;23.408;2023-08-06T01:36:20;93719.16;;;18.40;100.00
24280;BME280;12395;42.808;23.408;2023-08-06T01:38:46;93711.38;;;18.44;100.00
24280;BME280;12395;42.808;23.408;2023-08-06T01:41:11;93709.00;;;18.37;100.00
24280;BME280;12395;42.808;23.408;2023-08-06T01:43:37;93701.81;;;18.33;100.00
24280;BME280;12395;42.808;23.408;2023-08-06T01:46:02;93679.44;;;18.19;100.00
24280;BME280;12395;42.808;23.408;2023-08-06T01:48:28;93701.56;;;18.29;100.00
24280;BME280;12395;42.808;23.408;2023-08-06T01:50:53;93700.22;;;18.32;100.00
24280;BME280;12395;42.808;23.408;2023-08-06T01:53:18;93703.00;;;18.22;100.00
24280;BME280;12395;42.808;23.408;2023-08-06T01:55:50;93691.00;;;18.14;100.00
24280;BME280;12395;42.808;23.408;2023-08-06T01:58:15;93695.19;;;18.25;100.00
24280;BME280;12395;42.808;23.408;2023-08-06T02:00:41;93707.09;;;18.43;100.00
24280;BME280;12395;42.808;23.408;2023-08-06T02:03:06;93689.16;;;18.38;100.00
24280;BME280;12395;42.808;23.408;2023-08-06T02:05:32;93696.63;;;18.41;100.00
24280;BME280;12395;42.808;23.408;2023-08-06T02:07:57;93690.81;;;18.34;100.00
24280;BME280;12395;42.808;23.408;2023-08-06T02:10:23;93699.28;;;18.46;100.00
24280;BME280;12395;42.808;23.408;2023-08-06T02:12:48;93701.34;;;18.55;100.00
24280;BME280;12395;42.808;23.408;2023-08-06T02:15:13;93699.00;;;18.48;100.00
24280;BME280;12395;42.808;23.408;2023-08-06T02:17:39;93678.34;;;18.43;100.00
24280;BME280;12395;42.808;23.408;2023-08-06T02:20:05;93678.50;;;18.28;100.00
24280;BME280;12395;42.808;23.408;2023-08-06T02:22:30;93668.84;;;18.32;100.00
24280;BME280;12395;42.808;23.408;2023-08-06T02:24:56;93682.75;;;18.34;100.00
24280;BME280;12395;42.808;23.408;2023-08-06T02:27:21;93666.09;;;18.37;100.00
24280;BME280;12395;42.808;23.408;2023-08-06T02:29:46;93683.16;;;18.52;100.00
24280;BME280;12395;42.808;23.408;2023-08-06T02:32:12;93682.03;;;18.53;100.00
24280;BME280;12395;42.808;23.408;2023-08-06T02:34:37;93692.22;;;18.56;100.00
24280;BME280;12395;42.808;23.408;2023-08-06T02:37:02;93707.72;;;18.59;100.00
24280;BME280;12395;42.808;23.408;2023-08-06T02:39:28;93721.59;;;18.66;100.00
24280;BME280;12395;42.808;23.408;2023-08-06T02:41:53;93741.53;;;18.60;100.00
24280;BME280;12395;42.808;23.408;2023-08-06T02:44:19;93729.91;;;18.40;100.00
24280;BME280;12395;42.808;23.408;2023-08-06T02:46:45;93738.78;;;18.36;100.00
24280;BME280;12395;42.808;23.408;2023-08-06T02:49:10;93740.44;;;18.32;100.00
24280;BME280;12395;42.808;23.408;2023-08-06T02:51:36;93724.66;;;18.30;100.00
24280;BME280;12395;42.808;23.408;2023-08-06T02:54:01;93739.41;;;18.28;100.00
24280;BME280;12395;42.808;23.408;2023-08-06T02:56:27;93733.19;;;18.32;100.00
24280;BME280;12395;42.808;23.408;2023-08-06T02:58:54;93764.25;;;18.38;100.00
24280;BME280;12395;42.808;23.408;2023-08-06T03:01:19;93762.97;;;18.31;100.00
24280;BME280;12395;42.808;23.408;2023-08-06T03:03:45;93761.13;;;18.26;100.00
24280;BME280;12395;42.808;23.408;2023-08-06T03:06:10;93713.34;;;18.05;100.00
24280;BME280;12395;42.808;23.408;2023-08-06T03:08:36;93721.59;;;17.80;100.00
24280;BME280;12395;42.808;23.408;2023-08-06T03:11:03;93683.16;;;17.60;100.00
24280;BME280;12395;42.808;23.408;2023-08-06T03:13:28;93673.50;;;17.64;100.00
24280;BME280;12395;42.808;23.408;2023-08-06T03:15:58;93669.56;;;17.52;100.00
24280;BME280;12395;42.808;23.408;2023-08-06T03:18:26;93650.81;;;17.57;100.00
24280;BME280;12395;42.808;23.408;2023-08-06T03:20:53;93644.41;;;17.53;100.00
24280;BME280;12395;42.808;23.408;2023-08-06T03:23:18;93636.41;;;17.43;100.00
24280;BME280;12395;42.808;23.408;2023-08-06T03:25:44;93680.53;;;17.55;100.00
24280;BME280;12395;42.808;23.408;2023-08-06T03:28:10;93707.03;;;17.57;100.00
24280;BME280;12395;42.808;23.408;2023-08-06T03:30:35;93680.31;;;17.47;100.00
24280;BME280;12395;42.808;23.408;2023-08-06T03:33:01;93619.81;;;17.41;100.00
24280;BME280;12395;42.808;23.408;2023-08-06T03:35:26;93508.63;;;17.25;100.00
24280;BME280;12395;42.808;23.408;2023-08-06T03:37:52;93514.16;;;17.33;100.00
24280;BME280;12395;42.808;23.408;2023-08-06T03:40:17;93530.50;;;17.32;100.00
24280;BME280;12395;42.808;23.408;2023-08-06T03:42:42;93520.81;;;17.36;100.00
24280;BME280;12395;42.808;23.408;2023-08-06T03:45:08;93640.41;;;17.45;100.00
24280;BME280;12395;42.808;23.408;2023-08-06T03:47:37;93643.06;;;17.55;100.00
24280;BME280;12395;42.808;23.408;2023-08-06T03:50:03;93691.50;;;17.59;100.00
24280;BME280;12395;42.808;23.408;2023-08-06T03:52:28;93695.69;;;17.70;100.00
24280;BME280;12395;42.808;23.408;2023-08-06T03:54:53;93678.28;;;17.67;100.00
24280;BME280;12395;42.808;23.408;2023-08-06T03:57:19;93707.47;;;17.69;100.00
24280;BME280;12395;42.808;23.408;2023-08-06T03:59:44;93708.06;;;17.66;100.00
24280;BME280;12395;42.808;23.408;2023-08-06T04:02:10;93728.91;;;17.69;100.00
24280;BME280;12395;42.808;23.408;2023-08-06T04:04:35;93696.09;;;17.48;100.00
24280;BME280;12395;42.808;23.408;2023-08-06T04:07:00;93737.47;;;17.71;100.00
24280;BME280;12395;42.808;23.408;2023-08-06T04:09:28;93714.47;;;17.65;100.00
24280;BME280;12395;42.808;23.408;2023-08-06T04:11:53;93749.69;;;17.82;100.00
24280;BME280;12395;42.808;23.408;2023-08-06T04:14:19;93764.63;;;17.93;100.00
24280;BME280;12395;42.808;23.408;2023-08-06T04:16:44;93751.72;;;18.00;100.00
24280;BME280;12395;42.808;23.408;2023-08-06T04:19:10;93730.59;;;17.94;100.00
24280;BME280;12395;42.808;23.408;2023-08-06T04:21:35;93736.09;;;18.07;100.00
24280;BME280;12395;42.808;23.408;2023-08-06T04:24:00;93741.19;;;18.09;100.00
24280;BME280;12395;42.808;23.408;2023-08-06T04:26:26;93740.09;;;18.10;100.00
24280;BME280;12395;42.808;23.408;2023-08-06T04:28:51;93737.66;;;18.13;100.00
24280;BME280;12395;42.808;23.408;2023-08-06T04:31:17;93733.94;;;18.09;100.00
24280;BME280;12395;42.808;23.408;2023-08-06T04:33:42;93723.13;;;18.19;100.00
24280;BME280;12395;42.808;23.408;2023-08-06T04:36:08;93724.78;;;18.15;100.00
24280;BME280;12395;42.808;23.408;2023-08-06T04:38:33;93727.34;;;18.25;100.00
24280;BME280;12395;42.808;23.408;2023-08-06T04:40:59;93702.56;;;18.10;100.00
24280;BME280;12395;42.808;23.408;2023-08-06T04:43:24;93716.41;;;18.22;100.00
24280;BME280;12395;42.808;23.408;2023-08-06T04:45:51;93712.63;;;18.23;100.00
24280;BME280;12395;42.808;23.408;2023-08-06T04:48:18;93691.63;;;18.06;100.00
24280;BME280;12395;42.808;23.408;2023-08-06T04:50:48;93680.31;;;18.09;100.00
24280;BME280;12395;42.808;23.408;2023-08-06T04:53:13;93661.34;;;18.06;100.00
24280;BME280;12395;42.808;23.408;2023-08-06T04:55:39;93646.88;;;18.07;100.00
24280;BME280;12395;42.808;23.408;2023-08-06T04:58:04;93642.97;;;18.18;100.00
24280;BME280;12395;42.808;23.408;2023-08-06T05:00:30;93637.28;;;18.24;100.00
24280;BME280;12395;42.808;23.408;2023-08-06T05:02:55;93621.19;;;18.24;100.00
24280;BME280;12395;42.808;23.408;2023-08-06T05:05:21;93631.00;;;18.34;100.00
24280;BME280;12395;42.808;23.408;2023-08-06T05:07:48;93654.66;;;18.56;100.00
24280;BME280;12395;42.808;23.408;2023-08-06T05:10:14;93657.78;;;18.63;100.00
24280;BME280;12395;42.808;23.408;2023-08-06T05:12:39;93671.72;;;18.65;100.00
24280;BME280;12395;42.808;23.408;2023-08-06T05:15:05;93672.28;;;18.62;100.00
24280;BME280;12395;42.808;23.408;2023-08-06T05:17:30;93667.59;;;18.72;100.00
24280;BME280;12395;42.808;23.408;2023-08-06T05:19:55;93682.00;;;19.00;100.00
24280;BME280;12395;42.808;23.408;2023-08-06T05:22:21;93686.22;;;19.06;100.00
24280;BME280;12395;42.808;23.408;2023-08-06T05:24:46;93676.94;;;19.17;100.00
24280;BME280;12395;42.808;23.408;2023-08-06T05:27:12;93683.41;;;19.16;100.00
24280;BME280;12395;42.808;23.408;2023-08-06T05:29:37;93684.94;;;19.22;100.00
24280;BME280;12395;42.808;23.408;2023-08-06T05:32:02;93690.38;;;19.36;100.00
24280;BME280;12395;42.808;23.408;2023-08-06T05:34:28;93693.41;;;19.29;100.00
24280;BME280;12395;42.808;23.408;2023-08-06T05:36:54;93694.00;;;19.26;100.00
24280;BME280;12395;42.808;23.408;2023-08-06T05:39:19;93693.34;;;19.15;100.00
24280;BME280;12395;42.808;23.408;2023-08-06T05:41:45;93684.47;;;19.15;100.00
24280;BME280;12395;42.808;23.408;2023-08-06T05:44:10;93684.44;;;19.20;100.00
24280;BME280;12395;42.808;23.408;2023-08-06T05:46:36;93668.13;;;18.93;100.00
24280;BME280;12395;42.808;23.408;2023-08-06T05:49:01;93656.63;;;18.92;100.00
24280;BME280;12395;42.808;23.408;2023-08-06T05:51:27;93656.69;;;19.06;100.00
24280;BME280;12395;42.808;23.408;2023-08-06T05:53:52;93676.44;;;19.15;100.00
24280;BME280;12395;42.808;23.408;2023-08-06T05:56:17;93678.09;;;19.30;100.00
24280;BME280;12395;42.808;23.408;2023-08-06T05:58:43;93686.78;;;19.45;100.00
24280;BME280;12395;42.808;23.408;2023-08-06T06:01:08;93674.69;;;19.61;100.00
24280;BME280;12395;42.808;23.408;2023-08-06T06:03:34;93662.38;;;19.60;100.00
24280;BME280;12395;42.808;23.408;2023-08-06T06:06:01;93674.06;;;19.69;100.00
24280;BME280;12395;42.808;23.408;2023-08-06T06:08:26;93669.78;;;19.50;100.00
24280;BME280;12395;42.808;23.408;2023-08-06T06:10:52;93691.25;;;19.68;100.00
24280;BME280;12395;42.808;23.408;2023-08-06T06:13:17;93717.97;;;19.78;100.00
24280;BME280;12395;42.808;23.408;2023-08-06T06:15:42;93720.28;;;19.85;100.00
24280;BME280;12395;42.808;23.408;2023-08-06T06:18:08;93722.72;;;20.00;100.00
24280;BME280;12395;42.808;23.408;2023-08-06T06:20:33;93729.34;;;20.40;100.00
24280;BME280;12395;42.808;23.408;2023-08-06T06:22:59;93738.75;;;20.69;100.00
24280;BME280;12395;42.808;23.408;2023-08-06T06:25:24;93751.72;;;20.81;100.00
24280;BME280;12395;42.808;23.408;2023-08-06T06:27:50;93737.59;;;21.16;100.00
24280;BME280;12395;42.808;23.408;2023-08-06T06:30:15;93757.72;;;21.32;100.00
24280;BME280;12395;42.808;23.408;2023-08-06T06:32:41;93741.28;;;21.07;100.00
24280;BME280;12395;42.808;23.408;2023-08-06T06:35:07;93754.72;;;20.93;100.00
24280;BME280;12395;42.808;23.408;2023-08-06T06:37:32;93762.69;;;20.85;100.00
24280;BME280;12395;42.808;23.408;2023-08-06T06:39:58;93759.69;;;20.86;100.00
24280;BME280;12395;42.808;23.408;2023-08-06T06:42:23;93756.50;;;20.84;100.00
24280;BME280;12395;42.808;23.408;2023-08-06T06:44:49;93757.72;;;20.78;100.00
24280;BME280;12395;42.808;23.408;2023-08-06T06:47:14;93763.09;;;20.78;100.00
24280;BME280;12395;42.808;23.408;2023-08-06T06:49:39;93774.66;;;20.92;100.00
24280;BME280;12395;42.808;23.408;2023-08-06T06:52:05;93778.81;;;21.17;100.00
24280;BME280;12395;42.808;23.408;2023-08-06T06:54:30;93782.75;;;21.46;100.00
24280;BME280;12395;42.808;23.408;2023-08-06T06:56:57;93795.84;;;21.53;97.04
24280;BME280;12395;42.808;23.408;2023-08-06T06:59:22;93782.28;;;21.44;100.00
24280;BME280;12395;42.808;23.408;2023-08-06T07:01:48;93791.03;;;21.36;98.58
24280;BME280;12395;42.808;23.408;2023-08-06T07:04:13;93786.16;;;21.38;100.00
24280;BME280;12395;42.808;23.408;2023-08-06T07:06:38;93806.72;;;21.48;96.76
24280;BME280;12395;42.808;23.408;2023-08-06T07:09:04;93794.22;;;21.52;97.87
24280;BME280;12395;42.808;23.408;2023-08-06T07:11:29;93809.41;;;21.62;94.44
24280;BME280;12395;42.808;23.408;2023-08-06T07:13:58;93814.22;;;21.51;92.94
24280;BME280;12395;42.808;23.408;2023-08-06T07:16:24;93805.53;;;21.40;93.10
24280;BME280;12395;42.808;23.408;2023-08-06T07:18:51;93823.19;;;21.33;89.13
24280;BME280;12395;42.808;23.408;2023-08-06T07:21:17;93810.72;;;21.23;91.82
24280;BME280;12395;42.808;23.408;2023-08-06T07:23:42;93804.44;;;21.14;90.75
24280;BME280;12395;42.808;23.408;2023-08-06T07:26:08;93812.41;;;21.19;92.10
24280;BME280;12395;42.808;23.408;2023-08-06T07:28:34;93807.22;;;21.09;89.84
24280;BME280;12395;42.808;23.408;2023-08-06T07:31:00;93827.38;;;21.12;89.35
24280;BME280;12395;42.808;23.408;2023-08-06T07:33:25;93836.53;;;21.11;87.12
24280;BME280;12395;42.808;23.408;2023-08-06T07:35:51;93829.56;;;21.10;87.17
24280;BME280;12395;42.808;23.408;2023-08-06T07:38:16;93818.78;;;21.10;85.15
24280;BME280;12395;42.808;23.408;2023-08-06T07:40:42;93808.81;;;21.10;88.99
24280;BME280;12395;42.808;23.408;2023-08-06T07:43:07;93827.28;;;21.30;88.89
24280;BME280;12395;42.808;23.408;2023-08-06T07:45:37;93822.09;;;21.20;86.84
24280;BME280;12395;42.808;23.408;2023-08-06T07:48:03;93809.63;;;21.24;88.79
24280;BME280;12395;42.808;23.408;2023-08-06T07:50:28;93810.03;;;21.31;84.72
24280;BME280;12395;42.808;23.408;2023-08-06T07:52:54;93794.63;;;21.45;86.95
24280;BME280;12395;42.808;23.408;2023-08-06T07:55:19;93809.19;;;21.58;82.99
24280;BME280;12395;42.808;23.408;2023-08-06T07:57:45;93800.59;;;21.70;86.61
24280;BME280;12395;42.808;23.408;2023-08-06T08:00:10;93800.28;;;21.71;81.39
24280;BME280;12395;42.808;23.408;2023-08-06T08:02:36;93799.38;;;21.62;81.38
24280;BME280;12395;42.808;23.408;2023-08-06T08:05:03;93788.59;;;21.76;85.60
24280;BME280;12395;42.808;23.408;2023-08-06T08:07:28;93786.22;;;21.74;81.45
24280;BME280;12395;42.808;23.408;2023-08-06T08:09:56;93802.25;;;21.79;81.27
24280;BME280;12395;42.808;23.408;2023-08-06T08:12:21;93788.00;;;21.65;82.50
24280;BME280;12395;42.808;23.408;2023-08-06T08:14:47;93806.56;;;21.80;81.61
24280;BME280;12395;42.808;23.408;2023-08-06T08:17:12;93804.66;;;21.81;81.15
24280;BME280;12395;42.808;23.408;2023-08-06T08:19:38;93809.56;;;21.79;79.65
24280;BME280;12395;42.808;23.408;2023-08-06T08:22:03;93805.09;;;21.61;80.70
24280;BME280;12395;42.808;23.408;2023-08-06T08:24:29;93813.97;;;21.75;77.64
24280;BME280;12395;42.808;23.408;2023-08-06T08:26:56;93844.31;;;21.80;78.13
24280;BME280;12395;42.808;23.408;2023-08-06T08:29:22;93808.59;;;21.75;80.54
24280;BME280;12395;42.808;23.408;2023-08-06T08:31:48;93824.94;;;21.92;77.80
24280;BME280;12395;42.808;23.408;2023-08-06T08:34:16;93830.72;;;21.99;78.33
24280;BME280;12395;42.808;23.408;2023-08-06T08:36:42;93832.31;;;22.00;77.69
24280;BME280;12395;42.808;23.408;2023-08-06T08:39:08;93816.13;;;22.00;77.75
24280;BME280;12395;42.808;23.408;2023-08-06T08:41:37;93815.91;;;22.10;76.16
24280;BME280;12395;42.808;23.408;2023-08-06T08:44:07;93817.09;;;22.17;77.27
24280;BME280;12395;42.808;23.408;2023-08-06T08:46:34;93807.56;;;22.20;76.07
24280;BME280;12395;42.808;23.408;2023-08-06T08:49:02;93826.59;;;22.37;76.15
24280;BME280;12395;42.808;23.408;2023-08-06T08:51:28;93799.47;;;22.20;74.90
24280;BME280;12395;42.808;23.408;2023-08-06T08:53:55;93805.78;;;22.38;77.41
24280;BME280;12395;42.808;23.408;2023-08-06T08:56:24;93786.84;;;22.29;76.82
24280;BME280;12395;42.808;23.408;2023-08-06T08:58:50;93806.44;;;22.35;76.68
24280;BME280;12395;42.808;23.408;2023-08-06T09:01:21;93813.50;;;22.31;74.84
24280;BME280;12395;42.808;23.408;2023-08-06T09:03:47;93809.84;;;22.26;74.37
24280;BME280;12395;42.808;23.408;2023-08-06T09:06:13;93780.78;;;22.23;74.77
24280;BME280;12395;42.808;23.408;2023-08-06T09:08:45;93787.59;;;22.43;75.69
24280;BME280;12395;42.808;23.408;2023-08-06T09:11:12;93788.56;;;22.47;74.96
24280;BME280;12395;42.808;23.408;2023-08-06T09:13:38;93765.75;;;22.53;75.30
24280;BME280;12395;42.808;23.408;2023-08-06T09:16:04;93776.31;;;22.63;77.61
24280;BME280;12395;42.808;23.408;2023-08-06T09:18:30;93773.97;;;22.70;74.36
24280;BME280;12395;42.808;23.408;2023-08-06T09:20:56;93778.59;;;22.78;74.32
24280;BME280;12395;42.808;23.408;2023-08-06T09:23:28;93780.25;;;22.88;73.65
24280;BME280;12395;42.808;23.408;2023-08-06T09:25:58;93768.66;;;22.87;73.43
24280;BME280;12395;42.808;23.408;2023-08-06T09:28:24;93778.34;;;22.88;72.19
24280;BME280;12395;42.808;23.408;2023-08-06T09:30:50;93774.91;;;22.96;73.93
24280;BME280;12395;42.808;23.408;2023-08-06T09:33:19;93783.38;;;23.12;75.04
24280;BME280;12395;42.808;23.408;2023-08-06T09:35:46;93768.44;;;23.15;73.08
24280;BME280;12395;42.808;23.408;2023-08-06T09:38:12;93780.69;;;23.21;71.19
24280;BME280;12395;42.808;23.408;2023-08-06T09:40:38;93752.25;;;23.23;73.59
24280;BME280;12395;42.808;23.408;2023-08-06T09:43:04;93759.75;;;23.26;72.20
24280;BME280;12395;42.808;23.408;2023-08-06T09:45:35;93764.72;;;23.33;72.27
24280;BME280;12395;42.808;23.408;2023-08-06T09:48:08;93768.22;;;23.42;71.04
24280;BME280;12395;42.808;23.408;2023-08-06T09:50:37;93767.13;;;23.43;70.30
24280;BME280;12395;42.808;23.408;2023-08-06T09:53:05;93759.66;;;23.48;70.95
24280;BME280;12395;42.808;23.408;2023-08-06T09:55:32;93773.06;;;23.62;69.97
24280;BME280;12395;42.808;23.408;2023-08-06T09:57:58;93763.22;;;23.74;68.99
24280;BME280;12395;42.808;23.408;2023-08-06T10:00:25;93770.53;;;23.74;67.47
24280;BME280;12395;42.808;23.408;2023-08-06T10:02:52;93785.19;;;23.82;68.42
24280;BME280;12395;42.808;23.408;2023-08-06T10:05:20;93757.19;;;23.69;66.75
24280;BME280;12395;42.808;23.408;2023-08-06T10:07:46;93761.81;;;23.86;69.33
24280;BME280;12395;42.808;23.408;2023-08-06T10:10:12;93760.69;;;24.04;67.22
24280;BME280;12395;42.808;23.408;2023-08-06T10:12:43;93775.84;;;24.30;65.96
24280;BME280;12395;42.808;23.408;2023-08-06T10:15:13;93777.13;;;24.41;64.81
24280;BME280;12395;42.808;23.408;2023-08-06T10:17:41;93750.06;;;24.24;64.36
24280;BME280;12395;42.808;23.408;2023-08-06T10:20:08;93787.59;;;24.51;62.89
24280;BME280;12395;42.808;23.408;2023-08-06T10:22:34;93795.88;;;24.64;61.58
24280;BME280;12395;42.808;23.408;2023-08-06T10:25:01;93780.19;;;25.03;59.58
24280;BME280;12395;42.808;23.408;2023-08-06T10:32:47;93775.06;;;26.27;57.60
24280;BME280;12395;42.808;23.408;2023-08-06T10:35:27;93790.16;;;26.37;55.74
24280;BME280;12395;42.808;23.408;2023-08-06T10:37:53;93764.84;;;25.83;54.50
24280;BME280;12395;42.808;23.408;2023-08-06T10:40:25;93788.59;;;25.86;54.86
24280;BME280;12395;42.808;23.408;2023-08-06T10:42:51;93801.44;;;25.97;54.52
24280;BME280;12395;42.808;23.408;2023-08-06T10:45:18;93779.31;;;25.58;52.87
24280;BME280;12395;42.808;23.408;2023-08-06T10:47:44;93809.41;;;25.44;55.72
24280;BME280;12395;42.808;23.408;2023-08-06T10:50:17;93810.63;;;25.55;56.78
24280;BME280;12395;42.808;23.408;2023-08-06T10:52:46;93801.56;;;25.51;57.11
24280;BME280;12395;42.808;23.408;2023-08-06T10:55:28;93803.78;;;25.49;56.99
24280;BME280;12395;42.808;23.408;2023-08-06T10:57:55;93800.44;;;25.52;55.69
24280;BME280;12395;42.808;23.408;2023-08-06T11:00:21;93814.28;;;25.88;57.14
24280;BME280;12395;42.808;23.408;2023-08-06T11:02:48;93809.09;;;26.25;56.93
24280;BME280;12395;42.808;23.408;2023-08-06T11:05:15;93813.53;;;26.50;54.59
24280;BME280;12395;42.808;23.408;2023-08-06T11:07:40;93807.44;;;26.53;52.42
24280;BME280;12395;42.808;23.408;2023-08-06T11:10:10;93813.78;;;26.57;54.99
24280;BME280;12395;42.808;23.408;2023-08-06T11:12:36;93818.72;;;26.43;52.85
24280;BME280;12395;42.808;23.408;2023-08-06T11:15:03;93836.25;;;26.45;54.73
24280;BME280;12395;42.808;23.408;2023-08-06T11:17:31;93823.47;;;26.46;52.56
24280;BME280;12395;42.808;23.408;2023-08-06T11:20:02;93819.22;;;26.16;52.49
24280;BME280;12395;42.808;23.408;2023-08-06T11:22:28;93809.97;;;26.17;53.38
24280;BME280;12395;42.808;23.408;2023-08-06T11:24:54;93813.03;;;26.15;50.68
24280;BME280;12395;42.808;23.408;2023-08-06T11:27:20;93825.47;;;26.16;50.70
24280;BME280;12395;42.808;23.408;2023-08-06T11:29:45;93820.25;;;26.32;50.72
24280;BME280;12395;42.808;23.408;2023-08-06T11:32:11;93813.66;;;26.33;49.44
24280;BME280;12395;42.808;23.408;2023-08-06T11:34:37;93824.16;;;26.43;49.91
24280;BME280;12395;42.808;23.408;2023-08-06T11:37:03;93811.63;;;26.30;50.97
24280;BME280;12395;42.808;23.408;2023-08-06T11:39:36;93829.72;;;26.26;50.34
24280;BME280;12395;42.808;23.408;2023-08-06T11:42:08;93820.91;;;25.99;50.95
24280;BME280;12395;42.808;23.408;2023-08-06T11:44:36;93814.78;;;25.82;51.50
24280;BME280;12395;42.808;23.408;2023-08-06T11:47:04;93801.75;;;25.75;50.42
24280;BME280;12395;42.808;23.408;2023-08-06T11:49:49;93811.59;;;25.80;49.52
24280;BME280;12395;42.808;23.408;2023-08-06T11:52:19;93791.50;;;25.81;52.84
24280;BME280;12395;42.808;23.408;2023-08-06T11:54:47;93786.34;;;25.88;51.59
24280;BME280;12395;42.808;23.408;2023-08-06T11:57:13;93780.78;;;25.84;49.33
24280;BME280;12395;42.808;23.408;2023-08-06T11:59:40;93777.94;;;25.81;50.38
24280;BME280;12395;42.808;23.408;2023-08-06T12:02:08;93778.47;;;25.95;51.77
24280;BME280;12395;42.808;23.408;2023-08-06T12:05:00;93786.75;;;25.98;49.06
24280;BME280;12395;42.808;23.408;2023-08-06T12:07:32;93783.34;;;26.10;46.21
24280;BME280;12395;42.808;23.408;2023-08-06T12:09:58;93782.13;;;26.20;48.16
24280;BME280;12395;42.808;23.408;2023-08-06T12:12:24;93793.28;;;26.27;51.25
24280;BME280;12395;42.808;23.408;2023-08-06T12:14:49;93779.78;;;26.39;50.39
24280;BME280;12395;42.808;23.408;2023-08-06T12:17:15;93775.50;;;26.50;49.50
24280;BME280;12395;42.808;23.408;2023-08-06T12:19:40;93775.41;;;26.58;49.87
24280;BME280;12395;42.808;23.408;2023-08-06T12:22:05;93794.66;;;26.53;48.73
24280;BME280;12395;42.808;23.408;2023-08-06T12:24:31;93789.22;;;26.33;49.52
24280;BME280;12395;42.808;23.408;2023-08-06T12:27:00;93783.19;;;26.48;51.23
24280;BME280;12395;42.808;23.408;2023-08-06T12:29:27;93790.28;;;26.40;47.72
24280;BME280;12395;42.808;23.408;2023-08-06T12:31:53;93784.81;;;26.61;47.16
24280;BME280;12395;42.808;23.408;2023-08-06T12:34:18;93776.53;;;26.78;45.67
24280;BME280;12395;42.808;23.408;2023-08-06T12:36:44;93771.50;;;26.68;46.99
24280;BME280;12395;42.808;23.408;2023-08-06T12:39:09;93778.28;;;26.62;45.78
24280;BME280;12395;42.808;23.408;2023-08-06T12:41:35;93758.53;;;26.53;45.05
24280;BME280;12395;42.808;23.408;2023-08-06T12:44:01;93764.88;;;26.57;45.36
24280;BME280;12395;42.808;23.408;2023-08-06T12:46:27;93791.09;;;26.41;45.30
24280;BME280;12395;42.808;23.408;2023-08-06T12:48:53;93782.34;;;26.15;45.66
24280;BME280;12395;42.808;23.408;2023-08-06T12:51:18;93775.09;;;26.39;45.67
24280;BME280;12395;42.808;23.408;2023-08-06T12:53:43;93760.38;;;26.82;42.21
24280;BME280;12395;42.808;23.408;2023-08-06T12:56:09;93750.22;;;27.15;42.73